createdAt,value
2022-10-28T00:00:09.275Z,26.58
2022-10-28T00:00:34.594Z,26.52
2022-10-28T00:01:09.462Z,26.35
2022-10-28T00:01:24.700Z,26.50
2022-10-28T00:01:37.400Z,26.25
2022-10-28T00:01:50.122Z,25.88
2022-10-28T00:02:02.793Z,25.58
2022-10-28T00:02:15.613Z,25.77
2022-10-28T00:02:28.714Z,24.95
2022-10-28T00:02:42.386Z,24.05
2022-10-28T00:02:55.439Z,24.10
2022-10-28T00:03:08.328Z,23.67
2022-10-28T00:03:21.131Z,23.90
2022-10-28T00:03:34.093Z,24.45
2022-10-28T00:03:48.271Z,24.45
2022-10-28T00:04:02.495Z,24.20
2022-10-28T00:04:15.327Z,23.88
2022-10-28T00:04:27.941Z,23.30
2022-10-28T00:04:40.580Z,23.65
2022-10-28T00:04:53.167Z,24.48
2022-10-28T00:05:06.475Z,24.40
2022-10-28T00:05:19.106Z,23.88
2022-10-28T00:05:34.656Z,23.90
2022-10-28T00:05:48.263Z,23.77
2022-10-28T00:06:04.825Z,23.50
2022-10-28T00:06:19.413Z,23.52
2022-10-28T00:06:34.265Z,23.35
2022-10-28T00:06:46.892Z,23.17
2022-10-28T00:07:00.455Z,23.13
2022-10-28T00:07:13.219Z,23.48
2022-10-28T00:07:25.861Z,23.95
2022-10-28T00:07:38.446Z,23.55
2022-10-28T00:07:51.250Z,23.17
2022-10-28T00:08:04.215Z,22.95
2022-10-28T00:08:16.824Z,22.60
2022-10-28T00:08:30.419Z,23.42
2022-10-28T00:08:43.349Z,24.25
2022-10-28T00:08:56.491Z,23.65
2022-10-28T00:09:12.123Z,23.45
2022-10-28T00:09:25.219Z,23.75
2022-10-28T00:09:37.835Z,23.65
2022-10-28T00:09:51.444Z,23.40
2022-10-28T00:10:04.714Z,23.75
2022-10-28T00:10:17.492Z,23.63
2022-10-28T00:10:30.165Z,24.02
2022-10-28T00:10:42.751Z,23.77
2022-10-28T00:11:02.383Z,23.75
2022-10-28T00:11:17.853Z,24.67
2022-10-28T00:11:32.551Z,25.23
2022-10-28T00:11:46.562Z,25.08
2022-10-28T00:11:59.148Z,24.67
2022-10-28T00:12:11.774Z,24.77
2022-10-28T00:12:24.332Z,24.48
2022-10-28T00:12:37.798Z,23.60
2022-10-28T00:12:51.407Z,23.08
2022-10-28T00:13:04.037Z,23.85
2022-10-28T00:13:16.656Z,24.52
2022-10-28T00:13:29.267Z,24.25
2022-10-28T00:13:43.225Z,23.75
2022-10-28T00:13:57.254Z,23.85
2022-10-28T00:14:11.872Z,22.77
2022-10-28T00:14:24.472Z,21.63
2022-10-28T00:14:37.278Z,22.02
2022-10-28T00:14:49.909Z,22.95
2022-10-28T00:15:02.617Z,23.38
2022-10-28T00:15:15.324Z,23.30
2022-10-28T00:15:27.967Z,22.67
2022-10-28T00:15:41.643Z,22.98
2022-10-28T00:15:54.220Z,23.35
2022-10-28T00:16:09.932Z,23.25
2022-10-28T00:16:24.927Z,22.88
2022-10-28T00:16:38.371Z,23.15
2022-10-28T00:16:51.983Z,22.95
2022-10-28T00:17:04.548Z,22.63
2022-10-28T00:17:17.207Z,22.38
2022-10-28T00:17:29.822Z,22.15
2022-10-28T00:17:42.428Z,22.42
2022-10-28T00:17:55.339Z,22.33
2022-10-28T00:18:08.258Z,22.13
2022-10-28T00:18:20.957Z,22.02
2022-10-28T00:18:34.565Z,21.92
2022-10-28T00:18:47.452Z,22.80
2022-10-28T00:19:00.986Z,23.65
2022-10-28T00:19:14.600Z,23.95
2022-10-28T00:19:28.199Z,23.58
2022-10-28T00:19:40.783Z,23.13
2022-10-28T00:19:53.491Z,22.85
2022-10-28T00:20:07.285Z,22.33
2022-10-28T00:20:19.868Z,22.67
2022-10-28T00:20:32.469Z,22.83
2022-10-28T00:20:45.052Z,23.55
2022-10-28T00:21:01.955Z,23.75
2022-10-28T00:21:16.944Z,23.95
2022-10-28T00:21:31.699Z,23.83
2022-10-28T00:21:45.277Z,23.42
2022-10-28T00:21:58.842Z,23.65
2022-10-28T00:22:11.425Z,23.58
2022-10-28T00:22:24.117Z,24.00
2022-10-28T00:22:36.699Z,23.08
2022-10-28T00:22:49.278Z,22.42
2022-10-28T00:23:01.847Z,22.55
2022-10-28T00:23:14.449Z,23.33
2022-10-28T00:23:27.244Z,23.20
2022-10-28T00:23:41.420Z,22.73
2022-10-28T00:23:54.378Z,23.13
2022-10-28T00:24:08.966Z,23.05
2022-10-28T00:24:21.652Z,23.10
2022-10-28T00:24:34.299Z,22.73
2022-10-28T00:24:46.914Z,22.80
2022-10-28T00:25:00.527Z,23.42
2022-10-28T00:25:13.132Z,23.70
2022-10-28T00:25:25.742Z,24.17
2022-10-28T00:25:38.395Z,23.63
2022-10-28T00:25:50.956Z,23.23
2022-10-28T00:26:09.031Z,23.67
2022-10-28T00:26:23.463Z,24.40
2022-10-28T00:26:39.241Z,24.55
2022-10-28T00:26:53.175Z,23.98
2022-10-28T00:27:05.755Z,23.70
2022-10-28T00:27:18.323Z,23.60
2022-10-28T00:27:31.570Z,23.27
2022-10-28T00:27:44.198Z,22.08
2022-10-28T00:27:56.794Z,22.15
2022-10-28T00:28:09.380Z,21.90
2022-10-28T00:28:23.096Z,21.63
2022-10-28T00:28:36.237Z,22.05
2022-10-28T00:28:51.362Z,22.58
2022-10-28T00:29:06.405Z,23.73
2022-10-28T00:29:20.754Z,23.58
2022-10-28T00:29:33.317Z,22.20
2022-10-28T00:29:46.967Z,22.33
2022-10-28T00:29:59.537Z,23.27
2022-10-28T00:30:12.462Z,24.05
2022-10-28T00:30:25.085Z,23.88
2022-10-28T00:30:37.707Z,23.08
2022-10-28T00:30:50.417Z,23.38
2022-10-28T00:31:06.167Z,23.95
2022-10-28T00:31:20.699Z,24.15
2022-10-28T00:31:36.007Z,24.05
2022-10-28T00:31:49.030Z,24.02
2022-10-28T00:32:01.653Z,24.13
2022-10-28T00:32:14.272Z,23.70
2022-10-28T00:32:28.947Z,23.55
2022-10-28T00:32:41.517Z,23.85
2022-10-28T00:32:54.429Z,24.10
2022-10-28T00:33:07.172Z,24.35
2022-10-28T00:33:20.734Z,25.10
2022-10-28T00:33:33.791Z,25.10
2022-10-28T00:33:46.732Z,23.90
2022-10-28T00:34:01.050Z,24.33
2022-10-28T00:34:15.084Z,24.48
2022-10-28T00:34:28.783Z,24.27
2022-10-28T00:34:41.628Z,25.17
2022-10-28T00:34:54.279Z,24.52
2022-10-28T00:35:07.876Z,23.65
2022-10-28T00:35:20.443Z,23.48
2022-10-28T00:35:33.931Z,24.02
2022-10-28T00:35:46.663Z,24.40
2022-10-28T00:36:08.608Z,24.15
2022-10-28T00:36:24.020Z,24.33
2022-10-28T00:36:38.592Z,25.67
2022-10-28T00:36:51.321Z,25.38
2022-10-28T00:37:03.902Z,24.83
2022-10-28T00:37:16.496Z,24.20
2022-10-28T00:37:29.062Z,24.35
2022-10-28T00:37:41.660Z,24.15
2022-10-28T00:37:55.249Z,24.10
2022-10-28T00:38:07.867Z,23.70
2022-10-28T00:38:20.436Z,23.77
2022-10-28T00:38:33.031Z,23.83
2022-10-28T00:38:47.289Z,24.63
2022-10-28T00:39:01.756Z,24.77
2022-10-28T00:39:17.731Z,24.90
2022-10-28T00:39:30.560Z,24.55
2022-10-28T00:39:43.111Z,24.25
2022-10-28T00:39:55.687Z,23.73
2022-10-28T00:40:09.504Z,23.33
2022-10-28T00:40:22.334Z,23.83
2022-10-28T00:40:35.083Z,24.52
2022-10-28T00:40:47.688Z,24.23
2022-10-28T00:41:00.254Z,24.25
2022-10-28T00:41:17.298Z,23.67
2022-10-28T00:41:32.727Z,23.45
2022-10-28T00:41:47.559Z,23.55
2022-10-28T00:42:03.693Z,23.73
2022-10-28T00:42:22.028Z,23.90
2022-10-28T00:42:35.628Z,23.42
2022-10-28T00:42:48.285Z,23.52
2022-10-28T00:43:00.899Z,23.10
2022-10-28T00:43:13.561Z,22.58
2022-10-28T00:43:34.891Z,22.73
2022-10-28T00:43:51.607Z,23.60
2022-10-28T00:44:43.861Z,23.02
2022-10-28T00:44:58.382Z,24.40
2022-10-28T00:45:11.703Z,23.70
2022-10-28T00:45:25.961Z,23.25
2022-10-28T00:45:39.015Z,23.48
2022-10-28T00:45:51.716Z,23.27
2022-10-28T00:46:09.974Z,23.05
2022-10-28T00:46:30.228Z,23.40
2022-10-28T00:46:47.619Z,24.88
2022-10-28T00:47:00.429Z,24.88
2022-10-28T00:47:18.276Z,25.10
2022-10-28T00:47:40.996Z,25.48
2022-10-28T00:47:57.008Z,24.80
2022-10-28T00:48:09.949Z,23.65
2022-10-28T00:48:22.594Z,23.40
2022-10-28T00:48:36.209Z,23.85
2022-10-28T00:48:54.186Z,23.98
2022-10-28T00:49:15.019Z,24.10
2022-10-28T00:49:30.295Z,25.05
2022-10-28T00:49:45.933Z,25.73
2022-10-28T00:50:07.022Z,24.55
2022-10-28T00:50:30.305Z,24.95
2022-10-28T00:50:48.823Z,24.90
2022-10-28T00:51:01.567Z,25.13
2022-10-28T00:51:15.400Z,25.13
2022-10-28T00:51:32.015Z,25.05
2022-10-28T00:51:47.612Z,25.42
2022-10-28T00:52:04.229Z,24.75
2022-10-28T00:52:20.911Z,24.42
2022-10-28T00:52:33.920Z,25.33
2022-10-28T00:52:54.087Z,25.50
2022-10-28T00:53:09.947Z,25.77
2022-10-28T00:53:27.671Z,25.80
2022-10-28T00:53:42.681Z,24.80
2022-10-28T00:53:56.257Z,24.77
2022-10-28T00:54:09.244Z,24.85
2022-10-28T00:54:22.797Z,25.02
2022-10-28T00:54:35.799Z,24.95
2022-10-28T00:54:50.758Z,25.25
2022-10-28T00:55:04.067Z,25.23
2022-10-28T00:55:20.316Z,25.33
2022-10-28T00:55:35.116Z,24.60
2022-10-28T00:55:49.209Z,24.38
2022-10-28T00:56:03.497Z,25.02
2022-10-28T00:56:17.347Z,24.38
2022-10-28T00:56:35.427Z,23.27
2022-10-28T00:56:51.759Z,23.45
2022-10-28T00:57:11.013Z,24.23
2022-10-28T00:57:28.967Z,24.50
2022-10-28T00:57:42.636Z,24.92
2022-10-28T00:57:57.665Z,24.50
2022-10-28T00:58:12.027Z,24.10
2022-10-28T00:58:26.571Z,24.02
2022-10-28T00:58:39.814Z,24.67
2022-10-28T00:58:57.059Z,24.90
2022-10-28T00:59:16.737Z,24.23
2022-10-28T00:59:36.258Z,24.92
2022-10-28T00:59:53.406Z,24.67
2022-10-28T01:00:08.517Z,24.10
2022-10-28T01:00:21.417Z,24.45
2022-10-28T01:00:34.075Z,24.92
2022-10-28T01:00:47.989Z,24.60
2022-10-28T01:01:00.731Z,24.35
2022-10-28T01:01:13.353Z,24.80
2022-10-28T01:01:26.154Z,24.95
2022-10-28T01:01:39.025Z,24.80
2022-10-28T01:01:52.185Z,25.23
2022-10-28T01:02:05.485Z,25.55
2022-10-28T01:02:19.682Z,25.25
2022-10-28T01:02:35.977Z,25.17
2022-10-28T01:02:49.637Z,24.80
2022-10-28T01:03:02.565Z,24.30
2022-10-28T01:03:15.965Z,23.77
2022-10-28T01:03:28.583Z,24.17
2022-10-28T01:03:41.461Z,24.42
2022-10-28T01:03:56.947Z,24.73
2022-10-28T01:04:10.911Z,24.77
2022-10-28T01:04:23.833Z,24.30
2022-10-28T01:04:36.543Z,24.27
2022-10-28T01:04:49.667Z,23.98
2022-10-28T01:05:03.054Z,24.13
2022-10-28T01:05:18.023Z,24.63
2022-10-28T01:05:33.766Z,24.30
2022-10-28T01:05:48.255Z,24.33
2022-10-28T01:06:02.559Z,25.12
2022-10-28T01:06:15.501Z,25.30
2022-10-28T01:06:29.827Z,25.00
2022-10-28T01:06:42.921Z,24.70
2022-10-28T01:06:57.137Z,24.92
2022-10-28T01:07:10.747Z,24.80
2022-10-28T01:07:23.595Z,25.02
2022-10-28T01:07:37.175Z,25.42
2022-10-28T01:07:51.698Z,25.10
2022-10-28T01:08:05.766Z,24.67
2022-10-28T01:08:18.898Z,25.48
2022-10-28T01:08:32.234Z,25.85
2022-10-28T01:08:44.787Z,25.77
2022-10-28T01:09:00.106Z,26.25
2022-10-28T01:09:13.509Z,27.00
2022-10-28T01:09:44.705Z,25.83
2022-10-28T01:09:57.499Z,25.38
2022-10-28T01:10:11.655Z,25.65
2022-10-28T01:10:32.179Z,26.10
2022-10-28T01:10:58.713Z,26.08
2022-10-28T01:11:47.200Z,25.52
2022-10-28T01:12:09.081Z,24.35
2022-10-28T01:12:31.632Z,25.23
2022-10-28T01:12:55.848Z,25.73
2022-10-28T01:13:17.379Z,25.60
2022-10-28T01:13:40.501Z,24.70
2022-10-28T01:14:12.987Z,25.80
2022-10-28T01:14:41.993Z,26.40
2022-10-28T01:15:05.479Z,26.20
2022-10-28T01:15:28.927Z,25.50
2022-10-28T01:15:46.937Z,26.30
2022-10-28T01:16:06.531Z,26.27
2022-10-28T01:16:34.107Z,25.65
2022-10-28T01:17:01.666Z,26.77
2022-10-28T01:17:33.687Z,26.05
2022-10-28T01:17:58.439Z,26.95
2022-10-28T01:18:20.540Z,26.88
2022-10-28T01:18:41.593Z,27.20
2022-10-28T01:19:03.123Z,26.67
2022-10-28T01:19:58.286Z,25.40
2022-10-28T01:20:41.715Z,26.10
2022-10-28T01:21:32.415Z,25.10
2022-10-28T01:22:03.899Z,24.92
2022-10-28T01:22:21.747Z,25.67
2022-10-28T01:22:39.235Z,24.85
2022-10-28T01:22:58.877Z,24.95
2022-10-28T01:23:19.459Z,24.80
2022-10-28T01:23:36.485Z,25.75
2022-10-28T01:24:04.217Z,25.52
2022-10-28T01:24:36.342Z,25.83
2022-10-28T01:25:18.212Z,25.85
2022-10-28T01:25:56.707Z,26.92
2022-10-28T01:26:36.959Z,27.40
2022-10-28T01:27:14.501Z,26.50
2022-10-28T01:27:56.119Z,26.27
2022-10-28T01:28:28.651Z,27.23
2022-10-28T01:29:01.537Z,27.90
2022-10-28T01:29:59.905Z,26.23
2022-10-28T01:30:16.138Z,25.40
2022-10-28T01:30:35.959Z,24.73
2022-10-28T01:31:11.141Z,25.60
2022-10-28T01:31:35.461Z,25.60
2022-10-28T01:31:52.545Z,25.30
2022-10-28T01:32:12.117Z,24.60
2022-10-28T01:32:33.311Z,25.33
2022-10-28T01:32:56.035Z,24.58
2022-10-28T01:33:15.318Z,25.20
2022-10-28T01:33:35.498Z,26.75
2022-10-28T01:33:52.813Z,27.88
2022-10-28T01:34:14.483Z,26.80
2022-10-28T01:34:31.760Z,26.10
2022-10-28T01:34:54.185Z,25.75
2022-10-28T01:35:17.047Z,25.88
2022-10-28T01:35:34.930Z,25.35
2022-10-28T01:35:52.983Z,25.85
2022-10-28T01:36:12.423Z,25.38
2022-10-28T01:36:36.475Z,24.90
2022-10-28T01:36:58.627Z,26.88
2022-10-28T01:37:17.375Z,26.35
2022-10-28T01:37:34.621Z,26.50
2022-10-28T01:37:56.572Z,26.15
2022-10-28T01:38:21.773Z,27.35
2022-10-28T01:38:41.725Z,27.90
2022-10-28T01:39:03.284Z,27.83
2022-10-28T01:39:26.663Z,26.98
2022-10-28T01:39:48.356Z,27.55
2022-10-28T01:40:09.457Z,26.95
2022-10-28T01:40:33.428Z,26.70
2022-10-28T01:40:55.284Z,26.90
2022-10-28T01:41:12.182Z,26.60
2022-10-28T01:41:32.117Z,26.10
2022-10-28T01:41:52.859Z,26.13
2022-10-28T01:42:15.254Z,25.70
2022-10-28T01:42:32.492Z,26.08
2022-10-28T01:42:51.961Z,25.85
2022-10-28T01:43:14.146Z,25.48
2022-10-28T01:43:30.182Z,25.42
2022-10-28T01:43:47.364Z,26.33
2022-10-28T01:44:06.743Z,26.52
2022-10-28T01:44:26.435Z,26.20
2022-10-28T01:44:49.691Z,25.95
2022-10-28T01:45:09.807Z,25.48
2022-10-28T01:45:29.139Z,26.60
2022-10-28T01:45:50.151Z,26.77
2022-10-28T01:46:09.077Z,26.73
2022-10-28T01:46:27.981Z,27.35
2022-10-28T01:46:43.891Z,26.67
2022-10-28T01:47:02.575Z,25.95
2022-10-28T01:47:20.298Z,26.75
2022-10-28T01:47:37.603Z,26.05
2022-10-28T01:47:57.923Z,25.98
2022-10-28T01:48:14.895Z,26.42
2022-10-28T01:48:34.055Z,26.83
2022-10-28T01:48:51.038Z,26.98
2022-10-28T01:49:10.879Z,26.73
2022-10-28T01:49:29.326Z,26.20
2022-10-28T01:49:48.907Z,26.25
2022-10-28T01:50:05.772Z,26.65
2022-10-28T01:50:24.139Z,26.35
2022-10-28T01:50:41.955Z,26.67
2022-10-28T01:51:00.710Z,26.70
2022-10-28T01:51:19.833Z,27.05
2022-10-28T01:51:36.904Z,26.50
2022-10-28T01:51:54.281Z,26.42
2022-10-28T01:52:12.297Z,26.30
2022-10-28T01:52:29.070Z,25.73
2022-10-28T01:52:44.829Z,25.80
2022-10-28T01:53:01.276Z,25.90
2022-10-28T01:53:18.752Z,25.77
2022-10-28T01:53:35.907Z,25.42
2022-10-28T01:53:53.007Z,25.30
2022-10-28T01:54:09.899Z,25.90
2022-10-28T01:54:25.096Z,26.25
2022-10-28T01:54:40.959Z,26.23
2022-10-28T01:54:58.526Z,26.00
2022-10-28T01:55:15.843Z,26.38
2022-10-28T01:55:34.401Z,25.85
2022-10-28T01:55:52.226Z,24.98
2022-10-28T01:56:09.628Z,25.35
2022-10-28T01:56:25.130Z,24.75
2022-10-28T01:56:41.500Z,24.50
2022-10-28T01:56:57.181Z,24.42
2022-10-28T01:57:12.915Z,24.50
2022-10-28T01:57:29.229Z,24.58
2022-10-28T01:57:43.410Z,24.40
2022-10-28T01:57:59.549Z,24.10
2022-10-28T01:58:15.727Z,24.00
2022-10-28T01:58:31.685Z,24.27
2022-10-28T01:58:45.353Z,24.63
2022-10-28T01:59:01.980Z,24.20
2022-10-28T01:59:20.119Z,24.15
2022-10-28T01:59:34.778Z,24.15
2022-10-28T01:59:48.651Z,23.90
2022-10-28T02:00:02.091Z,23.73
2022-10-28T02:00:15.728Z,24.02
2022-10-28T02:00:29.893Z,24.58
2022-10-28T02:00:45.924Z,24.80
2022-10-28T02:01:00.983Z,26.27
2022-10-28T02:01:16.656Z,26.40
2022-10-28T02:01:31.724Z,25.67
2022-10-28T02:01:44.791Z,25.50
2022-10-28T02:01:58.016Z,24.90
2022-10-28T02:02:10.731Z,24.40
2022-10-28T02:02:24.901Z,24.63
2022-10-28T02:02:38.348Z,25.40
2022-10-28T02:02:51.596Z,26.10
2022-10-28T02:03:06.675Z,25.85
2022-10-28T02:03:19.423Z,25.13
2022-10-28T02:03:32.259Z,24.42
2022-10-28T02:03:46.927Z,23.95
2022-10-28T02:03:59.643Z,23.95
2022-10-28T02:04:12.286Z,24.45
2022-10-28T02:04:24.942Z,25.25
2022-10-28T02:04:37.498Z,25.42
2022-10-28T02:04:50.115Z,25.13
2022-10-28T02:05:27.539Z,25.30
2022-10-28T02:05:44.121Z,24.98
2022-10-28T02:05:59.776Z,25.63
2022-10-28T02:06:17.380Z,25.73
2022-10-28T02:06:32.945Z,26.80
2022-10-28T02:06:50.262Z,27.00
2022-10-28T02:07:03.839Z,26.38
2022-10-28T02:07:17.089Z,26.58
2022-10-28T02:07:29.668Z,26.27
2022-10-28T02:07:42.245Z,26.65
2022-10-28T02:07:59.763Z,27.08
2022-10-28T02:08:45.048Z,26.83
2022-10-28T02:09:07.975Z,27.70
2022-10-28T02:09:32.275Z,28.55
2022-10-28T02:10:01.460Z,26.20
2022-10-28T02:10:22.742Z,26.38
2022-10-28T02:10:42.079Z,27.02
2022-10-28T02:11:04.167Z,26.38
2022-10-28T02:11:34.404Z,26.98
2022-10-28T02:12:08.757Z,26.48
2022-10-28T02:12:26.657Z,26.52
2022-10-28T02:12:39.302Z,26.75
2022-10-28T02:12:56.531Z,26.25
2022-10-28T02:13:15.015Z,25.73
2022-10-28T02:13:39.006Z,26.00
2022-10-28T02:13:58.913Z,25.45
2022-10-28T02:14:25.475Z,25.63
2022-10-28T02:15:38.743Z,26.73
2022-10-28T02:16:00.935Z,27.92
2022-10-28T02:16:23.647Z,26.98
2022-10-28T02:16:47.970Z,27.45
2022-10-28T02:17:10.688Z,26.50
2022-10-28T02:17:37.522Z,26.80
2022-10-28T02:18:17.181Z,27.90
2022-10-28T02:18:40.112Z,26.77
2022-10-28T02:19:00.308Z,26.08
2022-10-28T02:19:18.897Z,26.60
2022-10-28T02:19:39.524Z,25.98
2022-10-28T02:20:00.878Z,25.02
2022-10-28T02:20:22.985Z,25.25
2022-10-28T02:20:46.551Z,25.63
2022-10-28T02:21:03.479Z,26.05
2022-10-28T02:21:29.487Z,26.23
2022-10-28T02:21:53.211Z,26.77
2022-10-28T02:22:15.943Z,26.90
2022-10-28T02:22:34.698Z,26.90
2022-10-28T02:22:53.429Z,27.25
2022-10-28T02:23:17.439Z,27.15
2022-10-28T02:23:42.417Z,27.17
2022-10-28T02:24:02.129Z,25.88
2022-10-28T02:24:21.517Z,26.92
2022-10-28T02:24:45.591Z,27.15
2022-10-28T02:25:07.797Z,26.90
2022-10-28T02:25:23.356Z,26.70
2022-10-28T02:25:42.520Z,26.65
2022-10-28T02:25:58.727Z,26.70
2022-10-28T02:26:21.813Z,26.65
2022-10-28T02:26:38.844Z,25.98
2022-10-28T02:26:56.907Z,25.50
2022-10-28T02:27:16.638Z,25.48
2022-10-28T02:27:34.891Z,26.08
2022-10-28T02:27:55.994Z,25.83
2022-10-28T02:28:37.939Z,25.90
2022-10-28T02:28:58.629Z,26.75
2022-10-28T02:29:17.532Z,25.98
2022-10-28T02:29:37.656Z,26.33
2022-10-28T02:29:56.084Z,25.85
2022-10-28T02:30:12.843Z,25.40
2022-10-28T02:30:32.957Z,25.35
2022-10-28T02:30:49.431Z,25.88
2022-10-28T02:31:07.787Z,25.85
2022-10-28T02:31:25.698Z,25.95
2022-10-28T02:31:42.805Z,26.95
2022-10-28T02:32:00.201Z,27.10
2022-10-28T02:32:16.336Z,25.67
2022-10-28T02:32:34.569Z,25.35
2022-10-28T02:32:52.773Z,26.20
2022-10-28T02:33:10.063Z,25.55
2022-10-28T02:33:26.924Z,25.10
2022-10-28T02:33:42.529Z,25.27
2022-10-28T02:34:00.743Z,25.10
2022-10-28T02:34:18.456Z,25.15
2022-10-28T02:34:35.757Z,25.17
2022-10-28T02:34:52.379Z,25.60
2022-10-28T02:35:11.399Z,25.70
2022-10-28T02:35:30.858Z,25.60
2022-10-28T02:35:48.126Z,24.70
2022-10-28T02:36:05.439Z,24.95
2022-10-28T02:36:20.041Z,25.02
2022-10-28T02:36:37.564Z,24.58
2022-10-28T02:36:54.096Z,24.27
2022-10-28T02:37:13.514Z,24.60
2022-10-28T02:37:30.732Z,25.02
2022-10-28T02:37:45.856Z,24.38
2022-10-28T02:38:01.760Z,23.92
2022-10-28T02:38:18.831Z,24.30
2022-10-28T02:38:35.264Z,24.95
2022-10-28T02:38:51.330Z,24.25
2022-10-28T02:39:06.470Z,24.00
2022-10-28T02:39:23.641Z,24.25
2022-10-28T02:39:41.452Z,24.92
2022-10-28T02:39:57.264Z,24.77
2022-10-28T02:40:20.325Z,24.58
2022-10-28T02:40:35.096Z,25.30
2022-10-28T02:41:16.007Z,24.52
2022-10-28T02:41:36.403Z,24.38
2022-10-28T02:41:54.048Z,24.85
2022-10-28T02:42:10.338Z,24.70
2022-10-28T02:42:28.189Z,24.58
2022-10-28T02:42:46.874Z,24.77
2022-10-28T02:43:04.277Z,25.05
2022-10-28T02:43:20.304Z,24.77
2022-10-28T02:43:34.946Z,24.45
2022-10-28T02:43:50.600Z,24.20
2022-10-28T02:44:09.126Z,24.05
2022-10-28T02:44:29.030Z,25.10
2022-10-28T02:44:46.171Z,25.13
2022-10-28T02:45:12.387Z,24.95
2022-10-28T02:45:29.724Z,25.83
2022-10-28T02:45:45.723Z,25.20
2022-10-28T02:46:03.600Z,24.95
2022-10-28T02:46:19.424Z,24.77
2022-10-28T02:46:35.442Z,25.48
2022-10-28T02:46:50.534Z,25.83
2022-10-28T02:47:12.792Z,25.50
2022-10-28T02:47:32.473Z,24.88
2022-10-28T02:47:50.166Z,24.42
2022-10-28T02:48:07.329Z,25.13
2022-10-28T02:48:25.701Z,24.63
2022-10-28T02:48:43.537Z,24.15
2022-10-28T02:49:00.523Z,24.25
2022-10-28T02:49:14.925Z,23.98
2022-10-28T02:49:30.203Z,23.55
2022-10-28T02:49:46.119Z,24.15
2022-10-28T02:50:04.254Z,25.15
2022-10-28T02:50:21.374Z,24.08
2022-10-28T02:50:38.609Z,24.52
2022-10-28T02:50:58.914Z,24.23
2022-10-28T02:51:16.362Z,23.90
2022-10-28T02:51:33.916Z,23.88
2022-10-28T02:51:52.455Z,23.55
2022-10-28T02:52:07.385Z,23.92
2022-10-28T02:52:23.040Z,23.88
2022-10-28T02:52:36.612Z,23.83
2022-10-28T02:52:54.649Z,23.83
2022-10-28T02:53:13.960Z,24.10
2022-10-28T02:53:31.865Z,24.30
2022-10-28T02:53:56.072Z,24.33
2022-10-28T02:54:11.979Z,24.20
2022-10-28T02:54:29.491Z,24.60
2022-10-28T02:54:46.002Z,24.85
2022-10-28T02:55:00.278Z,24.13
2022-10-28T02:55:13.996Z,23.58
2022-10-28T02:55:32.463Z,23.75
2022-10-28T02:55:49.492Z,24.63
2022-10-28T02:56:06.834Z,24.17
2022-10-28T02:56:21.570Z,24.48
2022-10-28T02:56:37.841Z,24.83
2022-10-28T02:56:56.727Z,24.92
2022-10-28T02:57:13.665Z,23.75
2022-10-28T02:57:29.297Z,24.05
2022-10-28T02:57:45.027Z,24.88
2022-10-28T02:57:58.188Z,25.00
2022-10-28T02:58:12.670Z,24.75
2022-10-28T02:58:25.280Z,24.50
2022-10-28T02:58:40.107Z,24.83
2022-10-28T02:58:53.103Z,24.48
2022-10-28T02:59:11.132Z,24.48
2022-10-28T02:59:25.207Z,24.70
2022-10-28T02:59:38.766Z,24.05
2022-10-28T02:59:53.459Z,23.77
2022-10-28T03:00:09.671Z,24.98
2022-10-28T03:00:24.610Z,25.52
2022-10-28T03:00:37.297Z,25.45
2022-10-28T03:00:50.879Z,26.00
2022-10-28T03:01:03.611Z,26.00
2022-10-28T03:01:18.460Z,26.48
2022-10-28T03:01:31.228Z,26.50
2022-10-28T03:01:45.439Z,26.67
2022-10-28T03:01:59.214Z,26.38
2022-10-28T03:02:12.021Z,25.48
2022-10-28T03:02:25.374Z,24.90
2022-10-28T03:02:37.968Z,25.33
2022-10-28T03:02:51.675Z,25.63
2022-10-28T03:03:04.520Z,25.83
2022-10-28T03:03:19.802Z,26.10
2022-10-28T03:03:32.399Z,25.95
2022-10-28T03:03:45.202Z,26.08
2022-10-28T03:03:57.805Z,26.20
2022-10-28T03:04:10.512Z,26.20
2022-10-28T03:04:24.198Z,25.67
2022-10-28T03:04:36.913Z,25.83
2022-10-28T03:04:49.528Z,26.42
2022-10-28T03:05:02.759Z,26.75
2022-10-28T03:05:15.636Z,28.00
2022-10-28T03:05:28.215Z,27.70
2022-10-28T03:05:40.833Z,26.42
2022-10-28T03:05:54.402Z,25.00
2022-10-28T03:06:07.049Z,25.70
2022-10-28T03:06:19.733Z,25.83
2022-10-28T03:06:32.341Z,25.92
2022-10-28T03:06:44.996Z,26.63
2022-10-28T03:06:57.617Z,26.90
2022-10-28T03:07:10.259Z,26.10
2022-10-28T03:07:22.962Z,26.08
2022-10-28T03:07:36.533Z,26.15
2022-10-28T03:07:49.197Z,26.00
2022-10-28T03:08:01.768Z,25.80
2022-10-28T03:08:14.385Z,25.33
2022-10-28T03:08:26.999Z,25.75
2022-10-28T03:08:39.687Z,26.73
2022-10-28T03:08:53.830Z,26.60
2022-10-28T03:09:06.475Z,25.48
2022-10-28T03:09:19.120Z,24.70
2022-10-28T03:09:31.682Z,24.58
2022-10-28T03:09:44.352Z,25.20
2022-10-28T03:09:57.119Z,25.90
2022-10-28T03:10:10.168Z,26.10
2022-10-28T03:10:23.784Z,26.00
2022-10-28T03:10:36.346Z,25.75
2022-10-28T03:10:49.777Z,25.90
2022-10-28T03:11:02.339Z,26.20
2022-10-28T03:11:14.941Z,25.90
2022-10-28T03:11:27.709Z,25.90
2022-10-28T03:11:40.332Z,25.77
2022-10-28T03:11:53.886Z,25.63
2022-10-28T03:12:06.646Z,25.58
2022-10-28T03:12:19.319Z,25.63
2022-10-28T03:12:31.944Z,25.02
2022-10-28T03:12:44.515Z,25.13
2022-10-28T03:12:57.120Z,25.08
2022-10-28T03:13:09.712Z,25.60
2022-10-28T03:13:23.275Z,25.63
2022-10-28T03:13:35.824Z,26.20
2022-10-28T03:13:48.420Z,25.83
2022-10-28T03:14:01.207Z,25.70
2022-10-28T03:14:15.369Z,25.20
2022-10-28T03:14:28.196Z,25.15
2022-10-28T03:14:40.954Z,25.20
2022-10-28T03:14:54.524Z,25.30
2022-10-28T03:15:08.155Z,25.35
2022-10-28T03:15:20.778Z,25.58
2022-10-28T03:15:33.395Z,26.08
2022-10-28T03:15:47.000Z,25.70
2022-10-28T03:15:59.576Z,25.50
2022-10-28T03:16:12.176Z,25.33
2022-10-28T03:16:26.623Z,25.08
2022-10-28T03:16:39.415Z,24.73
2022-10-28T03:16:53.341Z,25.02
2022-10-28T03:17:07.767Z,25.90
2022-10-28T03:17:20.294Z,25.75
2022-10-28T03:17:32.873Z,24.83
2022-10-28T03:17:45.439Z,24.00
2022-10-28T03:17:59.009Z,24.40
2022-10-28T03:18:11.625Z,24.50
2022-10-28T03:18:24.187Z,24.83
2022-10-28T03:18:36.716Z,25.48
2022-10-28T03:18:50.182Z,27.33
2022-10-28T03:19:02.781Z,27.00
2022-10-28T03:19:16.374Z,25.58
2022-10-28T03:19:29.158Z,26.55
2022-10-28T03:19:41.800Z,26.20
2022-10-28T03:19:54.354Z,25.10
2022-10-28T03:20:07.867Z,25.00
2022-10-28T03:20:20.432Z,25.10
2022-10-28T03:20:33.019Z,24.98
2022-10-28T03:20:46.599Z,24.85
2022-10-28T03:20:59.292Z,25.13
2022-10-28T03:21:11.908Z,24.80
2022-10-28T03:21:24.495Z,24.45
2022-10-28T03:21:37.032Z,24.88
2022-10-28T03:21:49.586Z,24.80
2022-10-28T03:22:02.148Z,25.05
2022-10-28T03:22:15.758Z,25.42
2022-10-28T03:22:28.331Z,25.58
2022-10-28T03:22:43.191Z,25.75
2022-10-28T03:22:56.136Z,25.70
2022-10-28T03:23:08.950Z,26.13
2022-10-28T03:23:21.475Z,26.27
2022-10-28T03:23:35.046Z,25.63
2022-10-28T03:23:47.657Z,25.25
2022-10-28T03:24:00.214Z,25.75
2022-10-28T03:24:12.957Z,25.73
2022-10-28T03:24:25.529Z,25.88
2022-10-28T03:24:39.080Z,25.83
2022-10-28T03:24:51.846Z,25.60
2022-10-28T03:25:05.327Z,25.65
2022-10-28T03:25:17.976Z,25.60
2022-10-28T03:25:30.566Z,26.08
2022-10-28T03:25:43.162Z,25.75
2022-10-28T03:25:55.702Z,26.02
2022-10-28T03:26:08.303Z,25.23
2022-10-28T03:26:21.821Z,24.98
2022-10-28T03:26:34.485Z,25.13
2022-10-28T03:26:47.098Z,25.48
2022-10-28T03:27:00.177Z,25.88
2022-10-28T03:27:12.737Z,25.88
2022-10-28T03:27:25.325Z,25.67
2022-10-28T03:27:40.797Z,25.15
2022-10-28T03:27:53.362Z,24.80
2022-10-28T03:28:05.915Z,24.38
2022-10-28T03:28:18.507Z,24.23
2022-10-28T03:28:31.049Z,25.25
2022-10-28T03:28:43.646Z,26.00
2022-10-28T03:28:57.388Z,25.67
2022-10-28T03:29:10.004Z,25.45
2022-10-28T03:29:22.569Z,25.17
2022-10-28T03:29:35.150Z,25.50
2022-10-28T03:29:47.719Z,25.23
2022-10-28T03:30:00.297Z,25.05
2022-10-28T03:30:14.493Z,24.90
2022-10-28T03:30:28.096Z,25.05
2022-10-28T03:30:40.641Z,25.17
2022-10-28T03:30:53.263Z,25.65
2022-10-28T03:31:06.005Z,25.83
2022-10-28T03:31:18.580Z,25.48
2022-10-28T03:31:31.155Z,25.58
2022-10-28T03:31:43.752Z,25.67
2022-10-28T03:31:57.670Z,25.60
2022-10-28T03:32:11.350Z,24.95
2022-10-28T03:32:24.002Z,24.38
2022-10-28T03:32:36.645Z,24.60